Fort Knox, KY

10:43 PM EDT on July 28, 2016 (GMT -0400)
Godman Army Air Field | | Change Station

Elev 755 ft 37.91 °N, 85.97 °W | Updated 1 hour ago

Partly Cloudy
Partly Cloudy
76 °F
Feels Like 76 °F
N
0
Wind Variable Wind from North

Today
High -- | Low -- °F
--% Chance of Precip.
Yesterday
High -- | Low -- °F
Precip. -- in
Pressure 29.89 in
Visibility 7.0 miles
Clouds Few 3000 ft
Dew Point 74 °F
Humidity 92%
Rainfall 0.32 in
Snow Depth Not available.
6:43 AM 8:56 PM
Waning Crescent, 26% visible
METAR KFTK 290058Z AUTO 00000KT 7SM FEW030 25/23 A2990 RMK AO2 SLP121 T02470233
Pressure 29.89 in
Visibility 7.0 miles
Clouds Few 3000 ft
Dew Point 74 °F
Humidity 92%
Rainfall 0.32 in
Snow Depth Not available.
6:43 AM 8:56 PM
Waning Crescent, 26% visible
METAR KFTK 290058Z AUTO 00000KT 7SM FEW030 25/23 A2990 RMK AO2 SLP121 T02470233

10-Day Weather Forecast

Almanac

Astronomy

Jul. 28, 2016 Rise Set
Actual Time
Civil Twilight
Nautical Twilight
Astronomical Twilight
Moon
Length of Visible Light
Length of Day
Tomorrow will be .
, % of the Moon is Illuminated

Today's Extremes

State Highs State Lows

Community

WunderPhotos

Upload Photos

1,928,274 photos uploaded!

WunderBlog® & News

Nearby

Air Quality

  Air Quality AQ Index Pollutant
Not available.

Snow Depth

Station Depth Elevation

Earthquake Activity

City Distance Mag. Time & Date
Minimum magnitude displayed is 2.5.

Coastal Water Temperatures

Place Temperature

Stations

Nearby Weather Stations

Station Location Temp. Windchill Dew Point Humidity Wind Precip. Elev Updated Type
                   

Watches & Warnings

There are currently no watches in effect.